sensor_id;sensor_type;location;lat;lon;timestamp;P1;durP1;ratioP1;P2;durP2;ratioP2
11877;SDS011;5998;42.676;23.268;2024-01-11T00:00:49;38.00;;;18.67;;
11877;SDS011;5998;42.676;23.268;2024-01-11T00:03:17;35.07;;;18.20;;
11877;SDS011;5998;42.676;23.268;2024-01-11T00:05:43;33.63;;;17.57;;
11877;SDS011;5998;42.676;23.268;2024-01-11T00:08:10;32.53;;;18.03;;
11877;SDS011;5998;42.676;23.268;2024-01-11T00:10:37;355.17;;;40.80;;
11877;SDS011;5998;42.676;23.268;2024-01-11T00:13:04;30.03;;;17.43;;
11877;SDS011;5998;42.676;23.268;2024-01-11T00:15:31;31.27;;;17.30;;
11877;SDS011;5998;42.676;23.268;2024-01-11T00:17:57;27.17;;;15.50;;
11877;SDS011;5998;42.676;23.268;2024-01-11T00:20:25;30.50;;;16.00;;
11877;SDS011;5998;42.676;23.268;2024-01-11T00:22:52;84.00;;;19.23;;
11877;SDS011;5998;42.676;23.268;2024-01-11T00:25:19;30.90;;;16.33;;
11877;SDS011;5998;42.676;23.268;2024-01-11T00:27:45;169.23;;;23.53;;
11877;SDS011;5998;42.676;23.268;2024-01-11T00:30:12;31.87;;;16.23;;
11877;SDS011;5998;42.676;23.268;2024-01-11T00:32:39;28.60;;;15.90;;
11877;SDS011;5998;42.676;23.268;2024-01-11T00:35:06;27.13;;;15.30;;
11877;SDS011;5998;42.676;23.268;2024-01-11T00:37:34;25.23;;;14.47;;
11877;SDS011;5998;42.676;23.268;2024-01-11T00:40:01;27.07;;;14.50;;
11877;SDS011;5998;42.676;23.268;2024-01-11T00:42:27;30.57;;;14.60;;
11877;SDS011;5998;42.676;23.268;2024-01-11T00:44:54;24.77;;;14.40;;
11877;SDS011;5998;42.676;23.268;2024-01-11T00:47:21;22.83;;;13.47;;
11877;SDS011;5998;42.676;23.268;2024-01-11T00:49:47;29.67;;;13.80;;
11877;SDS011;5998;42.676;23.268;2024-01-11T00:52:14;56.23;;;14.07;;
11877;SDS011;5998;42.676;23.268;2024-01-11T00:54:42;23.57;;;12.23;;
11877;SDS011;5998;42.676;23.268;2024-01-11T00:57:09;22.57;;;11.70;;
11877;SDS011;5998;42.676;23.268;2024-01-11T00:59:35;23.30;;;11.50;;
11877;SDS011;5998;42.676;23.268;2024-01-11T01:02:02;22.03;;;11.87;;
11877;SDS011;5998;42.676;23.268;2024-01-11T01:04:29;32.93;;;12.47;;
11877;SDS011;5998;42.676;23.268;2024-01-11T01:06:56;20.17;;;11.90;;
11877;SDS011;5998;42.676;23.268;2024-01-11T01:09:23;22.90;;;12.13;;
11877;SDS011;5998;42.676;23.268;2024-01-11T01:11:51;21.40;;;11.73;;
11877;SDS011;5998;42.676;23.268;2024-01-11T01:14:18;23.37;;;11.37;;
11877;SDS011;5998;42.676;23.268;2024-01-11T01:16:44;24.03;;;12.37;;
11877;SDS011;5998;42.676;23.268;2024-01-11T01:19:11;29.43;;;12.27;;
11877;SDS011;5998;42.676;23.268;2024-01-11T01:21:38;21.13;;;10.93;;
11877;SDS011;5998;42.676;23.268;2024-01-11T01:24:04;18.40;;;11.67;;
11877;SDS011;5998;42.676;23.268;2024-01-11T01:26:31;21.20;;;11.97;;
11877;SDS011;5998;42.676;23.268;2024-01-11T01:28:59;19.17;;;11.60;;
11877;SDS011;5998;42.676;23.268;2024-01-11T01:31:26;19.83;;;11.47;;
11877;SDS011;5998;42.676;23.268;2024-01-11T01:33:53;21.90;;;11.23;;
11877;SDS011;5998;42.676;23.268;2024-01-11T01:36:20;20.13;;;11.70;;
11877;SDS011;5998;42.676;23.268;2024-01-11T01:38:46;23.53;;;11.77;;
11877;SDS011;5998;42.676;23.268;2024-01-11T01:41:14;23.33;;;11.80;;
11877;SDS011;5998;42.676;23.268;2024-01-11T01:43:41;20.83;;;11.10;;
11877;SDS011;5998;42.676;23.268;2024-01-11T01:46:09;22.33;;;11.37;;
11877;SDS011;5998;42.676;23.268;2024-01-11T01:48:35;16.37;;;10.93;;
11877;SDS011;5998;42.676;23.268;2024-01-11T01:51:03;49.80;;;12.57;;
11877;SDS011;5998;42.676;23.268;2024-01-11T01:53:31;19.33;;;10.73;;
11877;SDS011;5998;42.676;23.268;2024-01-11T01:55:57;22.17;;;10.73;;
11877;SDS011;5998;42.676;23.268;2024-01-11T01:58:24;17.30;;;9.77;;
11877;SDS011;5998;42.676;23.268;2024-01-11T02:00:51;17.43;;;10.83;;
11877;SDS011;5998;42.676;23.268;2024-01-11T02:03:20;29.33;;;11.20;;
11877;SDS011;5998;42.676;23.268;2024-01-11T02:05:47;384.57;;;37.37;;
11877;SDS011;5998;42.676;23.268;2024-01-11T02:08:15;20.00;;;10.40;;
11877;SDS011;5998;42.676;23.268;2024-01-11T02:10:43;17.07;;;10.83;;
11877;SDS011;5998;42.676;23.268;2024-01-11T02:13:11;16.00;;;9.43;;
11877;SDS011;5998;42.676;23.268;2024-01-11T02:15:38;16.20;;;9.70;;
11877;SDS011;5998;42.676;23.268;2024-01-11T02:18:05;18.27;;;10.33;;
11877;SDS011;5998;42.676;23.268;2024-01-11T02:20:33;139.30;;;17.73;;
11877;SDS011;5998;42.676;23.268;2024-01-11T02:23:01;16.53;;;10.30;;
11877;SDS011;5998;42.676;23.268;2024-01-11T02:25:34;16.63;;;9.77;;
11877;SDS011;5998;42.676;23.268;2024-01-11T02:28:00;17.47;;;9.90;;
11877;SDS011;5998;42.676;23.268;2024-01-11T02:30:27;22.73;;;10.20;;
11877;SDS011;5998;42.676;23.268;2024-01-11T02:32:53;57.63;;;13.67;;
11877;SDS011;5998;42.676;23.268;2024-01-11T02:35:20;106.57;;;16.90;;
11877;SDS011;5998;42.676;23.268;2024-01-11T02:37:48;18.27;;;9.93;;
11877;SDS011;5998;42.676;23.268;2024-01-11T02:40:15;19.23;;;10.27;;
11877;SDS011;5998;42.676;23.268;2024-01-11T02:42:43;18.57;;;11.13;;
11877;SDS011;5998;42.676;23.268;2024-01-11T02:45:10;18.50;;;10.50;;
11877;SDS011;5998;42.676;23.268;2024-01-11T02:47:38;17.87;;;10.70;;
11877;SDS011;5998;42.676;23.268;2024-01-11T02:50:05;23.63;;;10.47;;
11877;SDS011;5998;42.676;23.268;2024-01-11T02:52:33;19.70;;;12.23;;
11877;SDS011;5998;42.676;23.268;2024-01-11T02:54:59;24.57;;;12.77;;
11877;SDS011;5998;42.676;23.268;2024-01-11T02:57:26;20.00;;;10.77;;
11877;SDS011;5998;42.676;23.268;2024-01-11T02:59:54;124.60;;;19.23;;
11877;SDS011;5998;42.676;23.268;2024-01-11T03:02:21;151.03;;;20.30;;
11877;SDS011;5998;42.676;23.268;2024-01-11T03:04:47;18.70;;;12.07;;
11877;SDS011;5998;42.676;23.268;2024-01-11T03:07:14;279.33;;;31.83;;
11877;SDS011;5998;42.676;23.268;2024-01-11T03:09:41;32.97;;;18.50;;
11877;SDS011;5998;42.676;23.268;2024-01-11T03:12:08;30.03;;;18.03;;
11877;SDS011;5998;42.676;23.268;2024-01-11T03:14:35;27.97;;;15.60;;
11877;SDS011;5998;42.676;23.268;2024-01-11T03:17:03;29.67;;;17.43;;
11877;SDS011;5998;42.676;23.268;2024-01-11T03:19:30;34.03;;;17.20;;
11877;SDS011;5998;42.676;23.268;2024-01-11T03:21:56;45.10;;;16.73;;
11877;SDS011;5998;42.676;23.268;2024-01-11T03:24:23;74.20;;;21.17;;
11877;SDS011;5998;42.676;23.268;2024-01-11T03:26:50;264.87;;;33.00;;
11877;SDS011;5998;42.676;23.268;2024-01-11T03:29:17;31.53;;;18.80;;
11877;SDS011;5998;42.676;23.268;2024-01-11T03:31:43;28.93;;;18.23;;
11877;SDS011;5998;42.676;23.268;2024-01-11T03:34:11;34.03;;;19.43;;
11877;SDS011;5998;42.676;23.268;2024-01-11T03:36:38;30.97;;;18.10;;
11877;SDS011;5998;42.676;23.268;2024-01-11T03:39:06;120.03;;;24.97;;
11877;SDS011;5998;42.676;23.268;2024-01-11T03:41:32;29.93;;;18.73;;
11877;SDS011;5998;42.676;23.268;2024-01-11T03:43:59;37.67;;;19.77;;
11877;SDS011;5998;42.676;23.268;2024-01-11T03:46:26;35.40;;;18.17;;
11877;SDS011;5998;42.676;23.268;2024-01-11T03:48:52;178.97;;;31.13;;
11877;SDS011;5998;42.676;23.268;2024-01-11T03:51:22;35.60;;;19.13;;
11877;SDS011;5998;42.676;23.268;2024-01-11T03:53:48;34.50;;;18.93;;
11877;SDS011;5998;42.676;23.268;2024-01-11T03:56:15;34.03;;;18.30;;
11877;SDS011;5998;42.676;23.268;2024-01-11T03:58:42;162.70;;;26.07;;
11877;SDS011;5998;42.676;23.268;2024-01-11T04:01:09;30.30;;;18.17;;
11877;SDS011;5998;42.676;23.268;2024-01-11T04:03:36;32.30;;;17.57;;
11877;SDS011;5998;42.676;23.268;2024-01-11T04:06:03;31.33;;;17.13;;
11877;SDS011;5998;42.676;23.268;2024-01-11T04:08:32;252.80;;;32.83;;
11877;SDS011;5998;42.676;23.268;2024-01-11T04:11:01;32.33;;;17.73;;
11877;SDS011;5998;42.676;23.268;2024-01-11T04:13:28;29.37;;;17.57;;
11877;SDS011;5998;42.676;23.268;2024-01-11T04:15:55;32.03;;;18.03;;
11877;SDS011;5998;42.676;23.268;2024-01-11T04:18:21;32.57;;;19.10;;
11877;SDS011;5998;42.676;23.268;2024-01-11T04:20:48;34.70;;;19.20;;
11877;SDS011;5998;42.676;23.268;2024-01-11T04:23:15;33.70;;;18.37;;
11877;SDS011;5998;42.676;23.268;2024-01-11T04:25:43;32.63;;;18.20;;
11877;SDS011;5998;42.676;23.268;2024-01-11T04:28:09;86.33;;;20.93;;
11877;SDS011;5998;42.676;23.268;2024-01-11T04:30:36;33.23;;;18.27;;
11877;SDS011;5998;42.676;23.268;2024-01-11T04:33:03;35.40;;;19.27;;
11877;SDS011;5998;42.676;23.268;2024-01-11T04:35:30;65.40;;;22.23;;
11877;SDS011;5998;42.676;23.268;2024-01-11T04:37:56;32.87;;;19.00;;
11877;SDS011;5998;42.676;23.268;2024-01-11T04:40:23;77.13;;;21.07;;
11877;SDS011;5998;42.676;23.268;2024-01-11T04:42:51;31.10;;;17.20;;
11877;SDS011;5998;42.676;23.268;2024-01-11T04:45:18;54.17;;;20.93;;
11877;SDS011;5998;42.676;23.268;2024-01-11T04:47:44;38.63;;;19.43;;
11877;SDS011;5998;42.676;23.268;2024-01-11T04:50:11;35.53;;;18.13;;
11877;SDS011;5998;42.676;23.268;2024-01-11T04:52:38;31.07;;;19.77;;
11877;SDS011;5998;42.676;23.268;2024-01-11T04:55:05;32.57;;;18.27;;
11877;SDS011;5998;42.676;23.268;2024-01-11T04:57:32;155.07;;;27.23;;
11877;SDS011;5998;42.676;23.268;2024-01-11T05:00:00;31.07;;;18.67;;
11877;SDS011;5998;42.676;23.268;2024-01-11T05:02:26;33.77;;;18.40;;
11877;SDS011;5998;42.676;23.268;2024-01-11T05:04:53;193.03;;;31.13;;
11877;SDS011;5998;42.676;23.268;2024-01-11T05:07:20;31.30;;;17.60;;
11877;SDS011;5998;42.676;23.268;2024-01-11T05:09:46;35.40;;;19.03;;
11877;SDS011;5998;42.676;23.268;2024-01-11T05:12:13;452.17;;;50.70;;
11877;SDS011;5998;42.676;23.268;2024-01-11T05:14:40;30.73;;;17.40;;
11877;SDS011;5998;42.676;23.268;2024-01-11T05:17:08;27.60;;;16.37;;
11877;SDS011;5998;42.676;23.268;2024-01-11T05:19:34;32.83;;;18.80;;
11877;SDS011;5998;42.676;23.268;2024-01-11T05:22:01;90.63;;;24.17;;
11877;SDS011;5998;42.676;23.268;2024-01-11T05:24:28;30.27;;;18.30;;
11877;SDS011;5998;42.676;23.268;2024-01-11T05:26:54;29.30;;;16.40;;
11877;SDS011;5998;42.676;23.268;2024-01-11T05:29:21;32.27;;;19.23;;
11877;SDS011;5998;42.676;23.268;2024-01-11T05:31:48;196.77;;;38.50;;
11877;SDS011;5998;42.676;23.268;2024-01-11T05:34:16;37.37;;;21.83;;
11877;SDS011;5998;42.676;23.268;2024-01-11T05:36:42;34.77;;;20.53;;
11877;SDS011;5998;42.676;23.268;2024-01-11T05:39:09;28.13;;;17.63;;
11877;SDS011;5998;42.676;23.268;2024-01-11T05:41:36;40.13;;;22.93;;
11877;SDS011;5998;42.676;23.268;2024-01-11T05:44:02;49.90;;;27.77;;
11877;SDS011;5998;42.676;23.268;2024-01-11T05:46:29;67.57;;;31.73;;
11877;SDS011;5998;42.676;23.268;2024-01-11T05:48:56;38.37;;;22.10;;
11877;SDS011;5998;42.676;23.268;2024-01-11T05:51:24;38.03;;;22.90;;
11877;SDS011;5998;42.676;23.268;2024-01-11T05:53:52;36.27;;;21.97;;
11877;SDS011;5998;42.676;23.268;2024-01-11T05:56:19;33.03;;;19.80;;
11877;SDS011;5998;42.676;23.268;2024-01-11T05:58:46;133.80;;;33.33;;
11877;SDS011;5998;42.676;23.268;2024-01-11T06:01:13;77.40;;;29.87;;
11877;SDS011;5998;42.676;23.268;2024-01-11T06:03:40;94.40;;;29.83;;
11877;SDS011;5998;42.676;23.268;2024-01-11T06:06:06;41.90;;;23.40;;
11877;SDS011;5998;42.676;23.268;2024-01-11T06:08:34;35.13;;;21.07;;
11877;SDS011;5998;42.676;23.268;2024-01-11T06:11:01;40.23;;;22.73;;
11877;SDS011;5998;42.676;23.268;2024-01-11T06:13:29;49.47;;;24.63;;
11877;SDS011;5998;42.676;23.268;2024-01-11T06:15:55;42.73;;;24.13;;
11877;SDS011;5998;42.676;23.268;2024-01-11T06:18:22;48.90;;;25.40;;
11877;SDS011;5998;42.676;23.268;2024-01-11T06:20:49;48.27;;;27.07;;
11877;SDS011;5998;42.676;23.268;2024-01-11T06:23:15;53.93;;;28.73;;
11877;SDS011;5998;42.676;23.268;2024-01-11T06:25:44;52.83;;;29.90;;
11877;SDS011;5998;42.676;23.268;2024-01-11T06:28:12;51.17;;;28.07;;
11877;SDS011;5998;42.676;23.268;2024-01-11T06:30:39;48.17;;;28.27;;
11877;SDS011;5998;42.676;23.268;2024-01-11T06:33:05;50.53;;;26.57;;
11877;SDS011;5998;42.676;23.268;2024-01-11T06:35:32;57.07;;;26.37;;
11877;SDS011;5998;42.676;23.268;2024-01-11T06:37:59;37.07;;;20.37;;
11877;SDS011;5998;42.676;23.268;2024-01-11T06:40:25;35.93;;;18.43;;
11877;SDS011;5998;42.676;23.268;2024-01-11T06:42:54;31.40;;;19.20;;
11877;SDS011;5998;42.676;23.268;2024-01-11T06:45:20;39.57;;;20.30;;
11877;SDS011;5998;42.676;23.268;2024-01-11T06:47:47;42.07;;;23.70;;
11877;SDS011;5998;42.676;23.268;2024-01-11T06:50:14;64.80;;;33.80;;
11877;SDS011;5998;42.676;23.268;2024-01-11T06:52:41;60.00;;;30.50;;
11877;SDS011;5998;42.676;23.268;2024-01-11T06:55:08;54.20;;;29.97;;
11877;SDS011;5998;42.676;23.268;2024-01-11T06:57:36;37.57;;;21.27;;
11877;SDS011;5998;42.676;23.268;2024-01-11T07:00:04;31.90;;;20.13;;
11877;SDS011;5998;42.676;23.268;2024-01-11T07:02:32;31.77;;;18.37;;
11877;SDS011;5998;42.676;23.268;2024-01-11T07:04:59;24.50;;;14.90;;
11877;SDS011;5998;42.676;23.268;2024-01-11T07:07:25;29.53;;;16.67;;
11877;SDS011;5998;42.676;23.268;2024-01-11T07:09:52;25.47;;;15.17;;
11877;SDS011;5998;42.676;23.268;2024-01-11T07:12:20;21.90;;;13.77;;
11877;SDS011;5998;42.676;23.268;2024-01-11T07:14:47;21.20;;;12.80;;
11877;SDS011;5998;42.676;23.268;2024-01-11T07:17:15;23.07;;;14.80;;
11877;SDS011;5998;42.676;23.268;2024-01-11T07:19:42;22.87;;;14.03;;
11877;SDS011;5998;42.676;23.268;2024-01-11T07:22:08;26.17;;;15.63;;
11877;SDS011;5998;42.676;23.268;2024-01-11T07:24:35;21.47;;;12.33;;
11877;SDS011;5998;42.676;23.268;2024-01-11T07:27:03;24.37;;;14.27;;
11877;SDS011;5998;42.676;23.268;2024-01-11T07:29:30;27.20;;;14.40;;
11877;SDS011;5998;42.676;23.268;2024-01-11T07:31:57;38.77;;;14.33;;
11877;SDS011;5998;42.676;23.268;2024-01-11T07:34:26;20.77;;;13.03;;
11877;SDS011;5998;42.676;23.268;2024-01-11T07:36:52;26.07;;;14.97;;
11877;SDS011;5998;42.676;23.268;2024-01-11T07:39:19;29.67;;;16.43;;
11877;SDS011;5998;42.676;23.268;2024-01-11T07:41:47;35.97;;;19.67;;
11877;SDS011;5998;42.676;23.268;2024-01-11T07:44:14;27.77;;;16.10;;
11877;SDS011;5998;42.676;23.268;2024-01-11T07:46:42;26.77;;;15.40;;
11877;SDS011;5998;42.676;23.268;2024-01-11T07:49:09;26.70;;;15.30;;
11877;SDS011;5998;42.676;23.268;2024-01-11T07:51:37;32.80;;;16.23;;
11877;SDS011;5998;42.676;23.268;2024-01-11T07:54:04;26.03;;;14.40;;
11877;SDS011;5998;42.676;23.268;2024-01-11T07:56:31;22.40;;;14.57;;
11877;SDS011;5998;42.676;23.268;2024-01-11T07:58:57;29.33;;;15.50;;
11877;SDS011;5998;42.676;23.268;2024-01-11T08:01:24;20.33;;;12.50;;
11877;SDS011;5998;42.676;23.268;2024-01-11T08:03:51;23.67;;;15.30;;
11877;SDS011;5998;42.676;23.268;2024-01-11T08:06:17;28.20;;;16.27;;
11877;SDS011;5998;42.676;23.268;2024-01-11T08:08:46;8.07;;;5.50;;
11877;SDS011;5998;42.676;23.268;2024-01-11T08:11:16;31.97;;;16.87;;
11877;SDS011;5998;42.676;23.268;2024-01-11T08:13:43;28.50;;;15.60;;
11877;SDS011;5998;42.676;23.268;2024-01-11T08:16:14;28.27;;;17.10;;
11877;SDS011;5998;42.676;23.268;2024-01-11T08:18:41;32.23;;;17.67;;
11877;SDS011;5998;42.676;23.268;2024-01-11T08:21:08;26.07;;;15.40;;
11877;SDS011;5998;42.676;23.268;2024-01-11T08:23:36;28.00;;;15.67;;
11877;SDS011;5998;42.676;23.268;2024-01-11T08:26:05;30.13;;;18.30;;
11877;SDS011;5998;42.676;23.268;2024-01-11T08:28:33;30.43;;;16.50;;
11877;SDS011;5998;42.676;23.268;2024-01-11T08:31:00;20.27;;;12.27;;
11877;SDS011;5998;42.676;23.268;2024-01-11T08:33:29;24.33;;;15.43;;
11877;SDS011;5998;42.676;23.268;2024-01-11T08:35:56;32.03;;;17.87;;
11877;SDS011;5998;42.676;23.268;2024-01-11T08:38:23;30.00;;;18.30;;
11877;SDS011;5998;42.676;23.268;2024-01-11T08:40:50;33.00;;;20.27;;
11877;SDS011;5998;42.676;23.268;2024-01-11T08:43:18;20.70;;;11.40;;
11877;SDS011;5998;42.676;23.268;2024-01-11T08:45:45;28.87;;;18.40;;
11877;SDS011;5998;42.676;23.268;2024-01-11T08:48:11;32.67;;;19.53;;
11877;SDS011;5998;42.676;23.268;2024-01-11T08:50:38;30.43;;;19.17;;
11877;SDS011;5998;42.676;23.268;2024-01-11T08:53:05;30.53;;;20.27;;
11877;SDS011;5998;42.676;23.268;2024-01-11T08:55:31;17.17;;;11.23;;
11877;SDS011;5998;42.676;23.268;2024-01-11T08:57:59;17.33;;;10.90;;
11877;SDS011;5998;42.676;23.268;2024-01-11T09:00:27;30.57;;;16.73;;
11877;SDS011;5998;42.676;23.268;2024-01-11T09:02:54;30.70;;;18.70;;
11877;SDS011;5998;42.676;23.268;2024-01-11T09:05:21;30.60;;;18.53;;
11877;SDS011;5998;42.676;23.268;2024-01-11T09:07:48;30.17;;;17.90;;
11877;SDS011;5998;42.676;23.268;2024-01-11T09:10:14;30.63;;;18.27;;
11877;SDS011;5998;42.676;23.268;2024-01-11T09:12:41;29.00;;;17.33;;
11877;SDS011;5998;42.676;23.268;2024-01-11T09:15:08;25.43;;;15.37;;
11877;SDS011;5998;42.676;23.268;2024-01-11T09:17:37;29.50;;;18.10;;
11877;SDS011;5998;42.676;23.268;2024-01-11T09:20:04;23.07;;;15.33;;
11877;SDS011;5998;42.676;23.268;2024-01-11T09:22:31;28.43;;;16.90;;
11877;SDS011;5998;42.676;23.268;2024-01-11T09:24:57;23.67;;;17.30;;
11877;SDS011;5998;42.676;23.268;2024-01-11T09:27:24;30.77;;;17.07;;
11877;SDS011;5998;42.676;23.268;2024-01-11T09:29:51;28.60;;;17.17;;
11877;SDS011;5998;42.676;23.268;2024-01-11T09:32:18;28.43;;;17.50;;
11877;SDS011;5998;42.676;23.268;2024-01-11T09:34:46;34.07;;;18.17;;
11877;SDS011;5998;42.676;23.268;2024-01-11T09:37:13;28.93;;;17.70;;
11877;SDS011;5998;42.676;23.268;2024-01-11T09:39:40;40.53;;;19.30;;
11877;SDS011;5998;42.676;23.268;2024-01-11T09:42:08;34.20;;;20.90;;
11877;SDS011;5998;42.676;23.268;2024-01-11T09:44:35;28.77;;;16.17;;
11877;SDS011;5998;42.676;23.268;2024-01-11T09:47:03;33.57;;;20.00;;
11877;SDS011;5998;42.676;23.268;2024-01-11T09:49:32;31.80;;;20.73;;
11877;SDS011;5998;42.676;23.268;2024-01-11T09:52:00;37.47;;;20.87;;
11877;SDS011;5998;42.676;23.268;2024-01-11T09:54:28;29.10;;;17.80;;
11877;SDS011;5998;42.676;23.268;2024-01-11T09:56:56;34.03;;;21.20;;
11877;SDS011;5998;42.676;23.268;2024-01-11T09:59:26;39.33;;;24.47;;
11877;SDS011;5998;42.676;23.268;2024-01-11T10:01:53;42.53;;;23.37;;
11877;SDS011;5998;42.676;23.268;2024-01-11T10:04:20;33.03;;;22.03;;
11877;SDS011;5998;42.676;23.268;2024-01-11T10:06:47;35.00;;;22.20;;
11877;SDS011;5998;42.676;23.268;2024-01-11T10:09:18;30.43;;;18.33;;
11877;SDS011;5998;42.676;23.268;2024-01-11T10:11:45;23.70;;;13.80;;
11877;SDS011;5998;42.676;23.268;2024-01-11T10:14:12;16.73;;;10.60;;
11877;SDS011;5998;42.676;23.268;2024-01-11T10:16:39;22.10;;;13.23;;
11877;SDS011;5998;42.676;23.268;2024-01-11T10:19:07;23.63;;;15.77;;
11877;SDS011;5998;42.676;23.268;2024-01-11T10:21:37;30.17;;;18.23;;
11877;SDS011;5998;42.676;23.268;2024-01-11T10:24:04;29.07;;;18.37;;
11877;SDS011;5998;42.676;23.268;2024-01-11T10:26:32;23.13;;;15.90;;
11877;SDS011;5998;42.676;23.268;2024-01-11T10:28:59;23.80;;;14.27;;
11877;SDS011;5998;42.676;23.268;2024-01-11T10:31:28;24.40;;;16.20;;
11877;SDS011;5998;42.676;23.268;2024-01-11T10:33:54;28.53;;;17.00;;
11877;SDS011;5998;42.676;23.268;2024-01-11T10:36:21;23.57;;;14.67;;
11877;SDS011;5998;42.676;23.268;2024-01-11T10:38:48;22.37;;;14.37;;
11877;SDS011;5998;42.676;23.268;2024-01-11T10:41:17;20.27;;;14.10;;
11877;SDS011;5998;42.676;23.268;2024-01-11T10:43:48;21.57;;;14.43;;
11877;SDS011;5998;42.676;23.268;2024-01-11T10:46:15;23.87;;;15.27;;
11877;SDS011;5998;42.676;23.268;2024-01-11T10:48:52;23.73;;;15.13;;
11877;SDS011;5998;42.676;23.268;2024-01-11T10:51:23;23.80;;;15.20;;
11877;SDS011;5998;42.676;23.268;2024-01-11T10:53:54;25.50;;;16.10;;
11877;SDS011;5998;42.676;23.268;2024-01-11T10:56:21;28.73;;;15.67;;
11877;SDS011;5998;42.676;23.268;2024-01-11T10:58:50;21.97;;;14.17;;
11877;SDS011;5998;42.676;23.268;2024-01-11T11:01:19;26.13;;;16.07;;
11877;SDS011;5998;42.676;23.268;2024-01-11T11:03:49;25.03;;;16.10;;
11877;SDS011;5998;42.676;23.268;2024-01-11T11:06:18;31.70;;;18.70;;
11877;SDS011;5998;42.676;23.268;2024-01-11T11:08:46;27.83;;;15.43;;
11877;SDS011;5998;42.676;23.268;2024-01-11T11:11:15;32.40;;;18.13;;
11877;SDS011;5998;42.676;23.268;2024-01-11T11:13:46;30.17;;;16.60;;
11877;SDS011;5998;42.676;23.268;2024-01-11T11:16:15;26.87;;;17.13;;
11877;SDS011;5998;42.676;23.268;2024-01-11T11:18:42;29.27;;;16.83;;
11877;SDS011;5998;42.676;23.268;2024-01-11T11:21:09;26.00;;;14.77;;
11877;SDS011;5998;42.676;23.268;2024-01-11T11:23:37;23.53;;;13.03;;
11877;SDS011;5998;42.676;23.268;2024-01-11T11:26:05;22.63;;;14.23;;
11877;SDS011;5998;42.676;23.268;2024-01-11T11:28:32;21.77;;;13.53;;
11877;SDS011;5998;42.676;23.268;2024-01-11T11:31:02;17.77;;;10.93;;
11877;SDS011;5998;42.676;23.268;2024-01-11T11:33:30;19.63;;;11.77;;
11877;SDS011;5998;42.676;23.268;2024-01-11T11:35:58;19.60;;;11.23;;
11877;SDS011;5998;42.676;23.268;2024-01-11T11:38:25;18.30;;;11.50;;
11877;SDS011;5998;42.676;23.268;2024-01-11T11:40:54;20.33;;;12.37;;
11877;SDS011;5998;42.676;23.268;2024-01-11T11:43:22;18.10;;;11.50;;
11877;SDS011;5998;42.676;23.268;2024-01-11T11:45:50;18.83;;;11.03;;
11877;SDS011;5998;42.676;23.268;2024-01-11T11:51:21;17.50;;;11.13;;
11877;SDS011;5998;42.676;23.268;2024-01-11T11:53:49;12.30;;;8.83;;
11877;SDS011;5998;42.676;23.268;2024-01-11T11:56:17;14.20;;;9.43;;
11877;SDS011;5998;42.676;23.268;2024-01-11T11:58:45;16.20;;;9.30;;
11877;SDS011;5998;42.676;23.268;2024-01-11T12:01:13;15.43;;;8.80;;
11877;SDS011;5998;42.676;23.268;2024-01-11T12:03:43;14.23;;;9.10;;
11877;SDS011;5998;42.676;23.268;2024-01-11T12:06:15;11.93;;;8.53;;
11877;SDS011;5998;42.676;23.268;2024-01-11T12:08:43;11.80;;;8.63;;
11877;SDS011;5998;42.676;23.268;2024-01-11T12:11:14;13.13;;;9.10;;
11877;SDS011;5998;42.676;23.268;2024-01-11T12:13:43;12.90;;;9.00;;
11877;SDS011;5998;42.676;23.268;2024-01-11T12:16:10;14.43;;;7.50;;
11877;SDS011;5998;42.676;23.268;2024-01-11T12:18:38;11.97;;;7.23;;
11877;SDS011;5998;42.676;23.268;2024-01-11T12:21:05;12.23;;;6.97;;
11877;SDS011;5998;42.676;23.268;2024-01-11T12:23:34;8.77;;;7.00;;
11877;SDS011;5998;42.676;23.268;2024-01-11T12:26:01;8.83;;;6.63;;
11877;SDS011;5998;42.676;23.268;2024-01-11T12:28:31;7.00;;;4.50;;
11877;SDS011;5998;42.676;23.268;2024-01-11T12:30:58;5.67;;;4.53;;
11877;SDS011;5998;42.676;23.268;2024-01-11T12:33:24;3.77;;;3.43;;
11877;SDS011;5998;42.676;23.268;2024-01-11T12:35:52;5.07;;;3.50;;
11877;SDS011;5998;42.676;23.268;2024-01-11T12:38:19;6.90;;;4.40;;
11877;SDS011;5998;42.676;23.268;2024-01-11T12:40:47;3.93;;;3.47;;
11877;SDS011;5998;42.676;23.268;2024-01-11T12:43:14;5.17;;;3.80;;
11877;SDS011;5998;42.676;23.268;2024-01-11T12:45:42;4.07;;;3.30;;
11877;SDS011;5998;42.676;23.268;2024-01-11T12:48:09;4.57;;;3.73;;
11877;SDS011;5998;42.676;23.268;2024-01-11T12:50:39;4.13;;;3.70;;
11877;SDS011;5998;42.676;23.268;2024-01-11T12:53:07;4.50;;;3.33;;
11877;SDS011;5998;42.676;23.268;2024-01-11T12:55:34;3.43;;;3.03;;
11877;SDS011;5998;42.676;23.268;2024-01-11T12:58:05;6.20;;;3.13;;
11877;SDS011;5998;42.676;23.268;2024-01-11T13:00:34;5.50;;;3.03;;
11877;SDS011;5998;42.676;23.268;2024-01-11T13:03:01;3.10;;;2.80;;
11877;SDS011;5998;42.676;23.268;2024-01-11T13:05:28;3.80;;;3.10;;
11877;SDS011;5998;42.676;23.268;2024-01-11T13:07:57;4.53;;;3.60;;
11877;SDS011;5998;42.676;23.268;2024-01-11T13:10:24;7.57;;;3.50;;
11877;SDS011;5998;42.676;23.268;2024-01-11T13:12:53;3.00;;;2.70;;
11877;SDS011;5998;42.676;23.268;2024-01-11T13:15:21;4.03;;;3.27;;
11877;SDS011;5998;42.676;23.268;2024-01-11T13:17:49;5.43;;;3.60;;
11877;SDS011;5998;42.676;23.268;2024-01-11T13:20:16;5.23;;;3.43;;
11877;SDS011;5998;42.676;23.268;2024-01-11T13:22:44;4.37;;;3.43;;
11877;SDS011;5998;42.676;23.268;2024-01-11T13:25:10;4.27;;;3.33;;
11877;SDS011;5998;42.676;23.268;2024-01-11T13:27:37;5.37;;;3.67;;
11877;SDS011;5998;42.676;23.268;2024-01-11T13:30:04;5.03;;;3.77;;
11877;SDS011;5998;42.676;23.268;2024-01-11T13:32:34;4.50;;;3.60;;
11877;SDS011;5998;42.676;23.268;2024-01-11T13:35:01;6.30;;;3.50;;
11877;SDS011;5998;42.676;23.268;2024-01-11T13:37:29;6.07;;;4.10;;
11877;SDS011;5998;42.676;23.268;2024-01-11T13:39:55;3.90;;;3.50;;
11877;SDS011;5998;42.676;23.268;2024-01-11T13:42:22;4.77;;;3.57;;
11877;SDS011;5998;42.676;23.268;2024-01-11T13:44:49;5.13;;;3.90;;
11877;SDS011;5998;42.676;23.268;2024-01-11T13:47:16;5.03;;;3.70;;
11877;SDS011;5998;42.676;23.268;2024-01-11T13:49:44;4.40;;;3.40;;
11877;SDS011;5998;42.676;23.268;2024-01-11T13:52:11;3.87;;;3.47;;
11877;SDS011;5998;42.676;23.268;2024-01-11T13:54:37;3.93;;;3.33;;
11877;SDS011;5998;42.676;23.268;2024-01-11T13:57:04;4.97;;;4.47;;
11877;SDS011;5998;42.676;23.268;2024-01-11T13:59:32;5.10;;;4.47;;
11877;SDS011;5998;42.676;23.268;2024-01-11T14:01:58;7.67;;;6.50;;
11877;SDS011;5998;42.676;23.268;2024-01-11T14:04:25;5.97;;;4.10;;
11877;SDS011;5998;42.676;23.268;2024-01-11T14:06:53;5.37;;;3.50;;
11877;SDS011;5998;42.676;23.268;2024-01-11T14:09:20;5.23;;;4.73;;
11877;SDS011;5998;42.676;23.268;2024-01-11T14:11:47;5.57;;;5.03;;
11877;SDS011;5998;42.676;23.268;2024-01-11T14:14:14;4.33;;;3.93;;
11877;SDS011;5998;42.676;23.268;2024-01-11T14:16:43;4.37;;;3.80;;
11877;SDS011;5998;42.676;23.268;2024-01-11T14:19:10;6.10;;;4.50;;
11877;SDS011;5998;42.676;23.268;2024-01-11T14:21:37;4.97;;;4.47;;
11877;SDS011;5998;42.676;23.268;2024-01-11T14:24:06;6.07;;;4.60;;
11877;SDS011;5998;42.676;23.268;2024-01-11T14:26:34;5.10;;;3.87;;
11877;SDS011;5998;42.676;23.268;2024-01-11T14:29:00;7.80;;;4.43;;